Time;durP1;ratioP1;P1;durP2;ratioP2;P2;SDS_P1;SDS_P2;PMS_P1;PMS_P2;Temp;Humidity;BMP_temperature;BMP_pressure;BME280_temperature;BME280_humidity;BME280_pressure;Samples;Min_cycle;Max_cycle;Signal;HPM_P1;HPM_P2
2022/06/10 00:00:29;;;;;;;2.95;2.03;;;15.50;99.90;;;;;;5091770;28;20046;-83
2022/06/10 00:02:57;;;;;;;2.72;1.85;;;15.50;99.90;;;;;;5091239;28;20048;-84
2022/06/10 00:05:29;;;;;;;3.20;2.17;;;15.50;99.90;;;;;;5090769;28;20058;-83
2022/06/10 00:07:56;;;;;;;2.17;1.92;;;15.40;99.90;;;;;;5091478;28;20544;-83
2022/06/10 00:10:26;;;;;;;7.60;2.25;;;15.40;99.90;;;;;;5087771;28;20512;-85
2022/06/10 00:12:55;;;;;;;3.22;2.08;;;15.40;99.90;;;;;;5072843;28;20504;-85
2022/06/10 00:15:22;;;;;;;2.65;2.20;;;15.30;99.90;;;;;;5053990;28;20048;-85
2022/06/10 00:17:50;;;;;;;2.95;2.08;;;15.30;99.90;;;;;;5072825;28;20053;-86
2022/06/10 00:20:20;;;;;;;5.72;2.65;;;15.30;99.90;;;;;;5084529;28;20058;-86
2022/06/10 00:22:47;;;;;;;2.63;2.42;;;15.30;99.90;;;;;;5076159;28;20098;-84
2022/06/10 00:25:17;;;;;;;2.75;2.33;;;15.30;99.90;;;;;;5078797;28;20404;-86
2022/06/10 00:27:44;;;;;;;3.03;2.47;;;15.30;99.90;;;;;;5080699;28;20543;-83
2022/06/10 00:30:16;;;;;;;3.55;2.35;;;15.20;99.90;;;;;;5078785;28;20070;-83
2022/06/10 00:32:43;;;;;;;2.35;2.17;;;15.20;99.90;;;;;;5068884;28;20052;-83
2022/06/10 00:35:11;;;;;;;4.10;2.65;;;15.20;99.90;;;;;;5073175;28;20144;-83
2022/06/10 00:37:39;;;;;;;2.85;2.60;;;15.10;99.90;;;;;;5087083;28;20048;-84
2022/06/10 00:40:09;;;;;;;4.68;2.70;;;15.10;99.90;;;;;;5076593;28;20064;-84
2022/06/10 00:42:38;;;;;;;4.05;2.42;;;15.10;99.90;;;;;;5071639;28;20055;-85
2022/06/10 00:45:27;;;;;;;3.42;2.50;;;15.10;99.90;;;;;;5070854;28;20044;-84
2022/06/10 00:47:56;;;;;;;2.60;2.40;;;15.10;99.90;;;;;;5061538;28;20447;-84
2022/06/10 00:50:30;;;;;;;5.22;2.70;;;15.00;99.90;;;;;;5078926;28;20079;-84
2022/06/10 00:53:02;;;;;;;3.13;2.78;;;15.00;99.90;;;;;;5069279;28;20055;-84
2022/06/10 00:55:30;;;;;;;4.67;2.83;;;15.00;99.90;;;;;;5070707;28;20519;-84
2022/06/10 00:58:03;;;;;;;5.30;2.85;;;15.00;99.90;;;;;;5081404;28;20176;-83
2022/06/10 01:00:30;;;;;;;5.60;3.08;;;14.90;99.90;;;;;;5082610;28;20106;-83
2022/06/10 01:02:59;;;;;;;4.07;3.25;;;14.90;99.90;;;;;;5068171;28;20512;-83
2022/06/10 01:05:28;;;;;;;5.68;3.42;;;14.90;99.90;;;;;;5072406;28;20101;-83
2022/06/10 01:08:00;;;;;;;3.42;3.13;;;14.90;99.90;;;;;;5076625;28;20075;-85
2022/06/10 01:10:29;;;;;;;5.35;3.20;;;14.90;99.90;;;;;;5052497;28;20135;-84
2022/06/10 01:13:08;;;;;;;5.07;3.72;;;14.90;99.90;;;;;;5085851;28;20044;-84
2022/06/10 01:15:42;;;;;;;4.28;3.38;;;14.90;99.90;;;;;;5089837;28;20047;-84
2022/06/10 01:18:37;;;;;;;6.43;3.85;;;14.90;99.90;;;;;;5055845;28;20052;-85
2022/06/10 01:21:19;;;;;;;3.58;3.28;;;14.90;99.90;;;;;;5049363;28;20055;-84
2022/06/10 01:24:25;;;;;;;4.55;3.55;;;14.90;99.90;;;;;;5070046;28;20055;-84
2022/06/10 01:27:50;;;;;;;7.45;4.35;;;14.90;99.90;;;;;;5058835;28;20118;-84
2022/06/10 01:30:56;;;;;;;5.20;3.88;;;14.80;99.90;;;;;;5080922;28;20054;-84
2022/06/10 01:33:49;;;;;;;3.80;3.50;;;14.80;99.90;;;;;;5087575;28;20047;-84
2022/06/10 01:36:25;;;;;;;4.93;3.90;;;14.80;99.90;;;;;;5068629;28;20040;-85
2022/06/10 01:38:59;;;;;;;12.60;4.57;;;14.80;99.90;;;;;;5085602;28;20075;-85
2022/06/10 01:41:35;;;;;;;7.30;4.70;;;14.80;99.90;;;;;;5072139;28;20051;-81
2022/06/10 01:44:12;;;;;;;4.72;4.13;;;14.80;99.90;;;;;;5078065;28;20048;-83
2022/06/10 01:46:45;;;;;;;9.57;4.80;;;14.80;99.90;;;;;;5070754;28;20045;-83
2022/06/10 01:49:24;;;;;;;7.43;4.53;;;14.80;99.90;;;;;;5077950;28;20036;-84
2022/06/10 01:51:58;;;;;;;7.30;4.38;;;14.80;99.90;;;;;;5090231;28;20138;-83
2022/06/10 01:54:34;;;;;;;10.05;5.47;;;14.80;99.90;;;;;;5098372;28;20398;-84
2022/06/10 01:57:08;;;;;;;6.63;4.43;;;14.80;99.90;;;;;;5084498;28;20069;-84
2022/06/10 01:59:40;;;;;;;10.98;4.82;;;14.80;99.90;;;;;;5088483;28;20442;-82
2022/06/10 02:02:11;;;;;;;7.72;4.80;;;14.80;99.90;;;;;;5069474;28;20044;-87
2022/06/10 02:04:43;;;;;;;4.53;4.15;;;14.80;99.90;;;;;;5056771;28;20130;-84
2022/06/10 02:07:17;;;;;;;7.15;4.95;;;14.80;99.90;;;;;;5051535;28;20056;-85
2022/06/10 02:09:51;;;;;;;7.40;5.10;;;14.80;99.90;;;;;;5071960;28;20044;-85
2022/06/10 02:12:22;;;;;;;9.13;6.07;;;14.80;99.90;;;;;;5076905;28;20558;-84
2022/06/10 02:14:56;;;;;;;11.95;6.07;;;14.80;99.90;;;;;;5071412;28;20368;-84
2022/06/10 02:17:26;;;;;;;9.32;5.38;;;14.80;99.90;;;;;;5070721;28;20165;-83
2022/06/10 02:19:59;;;;;;;20.85;6.13;;;14.80;99.90;;;;;;5070637;28;20036;-83
2022/06/10 02:22:34;;;;;;;11.45;6.18;;;14.80;99.90;;;;;;5078415;28;20127;-82
2022/06/10 02:25:09;;;;;;;6.88;6.00;;;14.90;99.90;;;;;;5069071;28;20289;-82
2022/06/10 02:27:43;;;;;;;8.38;5.55;;;14.90;99.90;;;;;;5086965;28;20048;-79
2022/06/10 02:30:15;;;;;;;7.10;6.28;;;14.90;99.90;;;;;;5087153;28;20052;-78
2022/06/10 02:32:43;;;;;;;6.28;5.57;;;15.00;99.90;;;;;;5072067;28;20363;-79
2022/06/10 02:35:14;;;;;;;8.82;5.53;;;15.00;99.90;;;;;;5072720;28;20611;-79
2022/06/10 02:37:48;;;;;;;6.45;5.90;;;15.00;99.90;;;;;;5079208;28;20044;-78
2022/06/10 02:40:23;;;;;;;8.85;6.28;;;15.10;99.90;;;;;;5079986;28;20102;-78
2022/06/10 02:43:00;;;;;;;6.25;5.68;;;15.00;99.90;;;;;;5079765;28;20048;-78
2022/06/10 02:45:33;;;;;;;7.93;5.32;;;15.00;99.90;;;;;;5082800;28;20044;-78
2022/06/10 02:48:07;;;;;;;9.88;6.40;;;15.00;99.90;;;;;;5073561;28;20496;-78
2022/06/10 02:50:36;;;;;;;11.70;6.05;;;15.10;99.90;;;;;;5075162;28;20044;-78
2022/06/10 02:53:06;;;;;;;7.13;5.90;;;15.00;99.90;;;;;;5076103;28;21942;-78
2022/06/10 02:55:33;;;;;;;8.95;6.47;;;15.10;99.90;;;;;;5067429;28;20072;-79
2022/06/10 03:01:20;;;;;;;6.78;6.07;;;15.10;99.90;;;;;;5076875;28;20054;-79
2022/06/10 03:04:05;;;;;;;8.35;6.43;;;15.10;99.90;;;;;;5090885;28;20044;-78
2022/06/10 03:06:41;;;;;;;7.60;6.00;;;15.20;99.90;;;;;;5087203;28;20455;-78
2022/06/10 03:09:13;;;;;;;8.13;7.32;;;15.20;99.90;;;;;;5084476;28;20117;-79
2022/06/10 03:11:49;;;;;;;9.40;6.35;;;15.20;99.90;;;;;;5074311;28;20060;-78
2022/06/10 03:14:28;;;;;;;10.27;6.45;;;15.20;99.90;;;;;;5074169;28;20052;-79
2022/06/10 03:17:11;;;;;;;7.47;6.70;;;15.20;99.90;;;;;;5080890;28;20048;-80
2022/06/10 03:19:45;;;;;;;8.73;7.15;;;15.30;99.90;;;;;;5085405;28;20365;-78
2022/06/10 03:22:29;;;;;;;8.15;7.35;;;15.30;99.90;;;;;;5089916;28;20078;-78
2022/06/10 03:25:04;;;;;;;6.95;6.13;;;15.40;99.90;;;;;;5077986;28;20117;-79
2022/06/10 03:27:37;;;;;;;11.20;6.68;;;15.40;99.90;;;;;;5090829;28;20044;-81
2022/06/10 03:30:08;;;;;;;9.85;6.82;;;15.40;99.90;;;;;;5082922;28;20047;-81
2022/06/10 03:32:41;;;;;;;8.25;7.38;;;15.50;99.90;;;;;;5093002;28;20133;-80
2022/06/10 03:35:10;;;;;;;;;;;15.50;99.90;;;;;;5083233;28;20142;-80
2022/06/10 03:37:41;;;;;;;11.25;7.38;;;15.60;99.90;;;;;;5093112;28;20026;-80
2022/06/10 03:40:16;;;;;;;7.95;7.15;;;15.50;99.90;;;;;;5090431;28;20051;-80
2022/06/10 03:42:48;;;;;;;8.18;6.80;;;15.60;99.90;;;;;;5090729;28;20498;-80
2022/06/10 03:45:18;;;;;;;8.52;7.15;;;15.60;99.90;;;;;;5081885;28;20458;-80
2022/06/10 03:47:46;;;;;;;9.45;7.30;;;15.60;99.90;;;;;;5092905;28;20507;-79
2022/06/10 03:50:17;;;;;;;10.77;6.78;;;15.70;99.90;;;;;;5092283;28;20189;-79
2022/06/10 03:52:46;;;;;;;8.70;7.10;;;15.80;99.90;;;;;;5091187;28;20044;-79
2022/06/10 03:55:17;;;;;;;12.63;6.95;;;15.90;99.90;;;;;;5093164;28;20408;-79
2022/06/10 03:57:45;;;;;;;7.90;7.18;;;16.00;99.90;;;;;;5093114;28;20052;-79
2022/06/10 04:00:16;;;;;;;7.78;6.78;;;16.00;99.90;;;;;;5093037;28;20401;-79
2022/06/10 04:02:44;;;;;;;8.90;6.70;;;16.10;99.90;;;;;;5088798;28;20040;-79
2022/06/10 04:05:12;;;;;;;8.75;7.55;;;16.10;99.90;;;;;;5091509;28;20048;-79
2022/06/10 04:07:40;;;;;;;10.60;7.78;;;16.30;99.90;;;;;;5090136;28;20059;-79
2022/06/10 04:10:13;;;;;;;8.70;7.22;;;16.40;99.90;;;;;;5090957;28;20063;-80
2022/06/10 04:12:41;;;;;;;7.50;6.82;;;16.40;99.90;;;;;;5090590;28;20044;-79
2022/06/10 04:15:09;;;;;;;9.90;7.63;;;16.40;99.90;;;;;;5090651;28;20508;-80
2022/06/10 04:17:37;;;;;;;9.10;7.00;;;16.40;99.90;;;;;;5089387;28;20519;-79
2022/06/10 04:20:05;;;;;;;10.38;7.35;;;16.40;99.90;;;;;;5090039;28;20047;-80
2022/06/10 04:22:33;;;;;;;9.52;7.30;;;16.50;99.90;;;;;;5081243;28;20049;-79
2022/06/10 04:25:00;;;;;;;7.68;6.97;;;16.50;99.90;;;;;;5071499;28;20049;-79
2022/06/10 04:27:29;;;;;;;11.55;7.10;;;16.50;99.90;;;;;;5071634;28;20049;-79
2022/06/10 04:29:58;;;;;;;13.00;8.20;;;16.60;99.90;;;;;;5079496;28;20051;-80
2022/06/10 04:32:25;;;;;;;9.35;7.32;;;16.70;99.90;;;;;;5090694;28;20102;-80
2022/06/10 04:34:52;;;;;;;8.73;7.00;;;16.70;99.90;;;;;;5090977;28;20048;-80
2022/06/10 04:37:20;;;;;;;16.38;11.45;;;16.80;99.90;;;;;;5092161;28;20068;-80
2022/06/10 04:39:47;;;;;;;8.15;7.07;;;16.90;99.90;;;;;;5089726;28;20048;-79
2022/06/10 04:42:14;;;;;;;10.23;7.93;;;16.90;99.90;;;;;;5092154;28;20040;-80
2022/06/10 04:44:43;;;;;;;7.75;6.78;;;17.00;99.90;;;;;;5081028;28;20048;-80
2022/06/10 04:47:10;;;;;;;7.93;6.97;;;17.10;99.90;;;;;;5071998;28;20076;-79
2022/06/10 04:49:39;;;;;;;10.57;7.43;;;17.20;99.90;;;;;;5075954;28;20535;-79
2022/06/10 04:52:07;;;;;;;8.05;7.25;;;17.30;99.90;;;;;;5071609;28;20048;-80
2022/06/10 04:54:34;;;;;;;8.07;6.63;;;17.40;99.90;;;;;;5086440;28;20530;-81
2022/06/10 04:57:01;;;;;;;8.95;6.57;;;17.40;99.90;;;;;;5091773;28;20051;-80
2022/06/10 04:59:29;;;;;;;10.75;6.85;;;17.50;99.90;;;;;;5076340;28;20114;-81
2022/06/10 05:01:57;;;;;;;15.65;6.95;;;17.50;99.90;;;;;;5071143;28;20183;-78
2022/06/10 05:04:25;;;;;;;9.38;7.03;;;17.60;99.90;;;;;;5053143;28;20044;-81
2022/06/10 05:06:52;;;;;;;10.55;6.25;;;17.60;99.90;;;;;;5073269;28;20051;-80
2022/06/10 05:09:20;;;;;;;11.15;7.20;;;17.70;99.90;;;;;;5090132;28;20046;-80
2022/06/10 05:11:47;;;;;;;16.08;9.63;;;17.70;99.90;;;;;;5090158;28;20090;-80
2022/06/10 05:14:14;;;;;;;6.63;5.93;;;17.80;99.90;;;;;;5089969;28;20040;-80
2022/06/10 05:16:42;;;;;;;7.25;5.63;;;17.90;99.90;;;;;;5087368;28;20071;-81
2022/06/10 05:19:11;;;;;;;7.30;6.25;;;18.00;99.90;;;;;;5082516;28;20052;-79
2022/06/10 05:21:38;;;;;;;9.57;6.75;;;18.10;99.90;;;;;;5071261;28;20470;-83
2022/06/10 05:24:06;;;;;;;7.57;5.55;;;18.20;99.90;;;;;;5075496;28;20457;-83
2022/06/10 05:26:34;;;;;;;7.85;6.75;;;18.40;99.90;;;;;;5079253;28;20056;-82
2022/06/10 05:29:01;;;;;;;7.18;6.25;;;18.60;99.90;;;;;;5076761;28;20056;-81
2022/06/10 05:31:29;;;;;;;13.90;7.32;;;18.70;99.90;;;;;;5071364;28;20062;-85
2022/06/10 05:36:43;;;;;;;5.85;5.25;;;19.10;99.90;;;;;;5085869;28;20155;-82
2022/06/10 05:39:11;;;;;;;10.68;5.53;;;19.20;99.90;;;;;;5085679;28;20048;-81
2022/06/10 05:44:25;;;;;;;11.02;5.20;;;19.90;99.90;;;;;;5078903;28;20066;-83
2022/06/10 05:46:53;;;;;;;9.52;5.22;;;20.40;99.90;;;;;;5085504;28;20040;-82
2022/06/10 05:49:21;;;;;;;6.00;4.03;;;20.90;99.90;;;;;;5083961;28;20500;-81
2022/06/10 05:51:50;;;;;;;9.23;5.05;;;21.40;99.90;;;;;;5087359;28;20150;-81
2022/06/10 05:54:19;;;;;;;8.77;6.82;;;21.70;99.90;;;;;;5088608;28;20075;-80
2022/06/10 05:56:47;;;;;;;17.85;7.97;;;22.10;99.90;;;;;;5074916;28;20076;-81
2022/06/10 05:59:18;;;;;;;10.55;6.28;;;22.50;99.90;;;;;;5081942;28;20052;-81
2022/06/10 06:01:47;;;;;;;10.43;6.15;;;22.70;99.90;;;;;;5077713;28;20565;-83
2022/06/10 06:04:14;;;;;;;10.90;5.00;;;22.90;99.90;;;;;;5078820;28;20044;-86
2022/06/10 06:06:43;;;;;;;8.63;5.18;;;23.10;99.90;;;;;;5078575;28;20051;-80
2022/06/10 06:09:14;;;;;;;9.35;5.57;;;23.40;99.90;;;;;;5084853;28;20044;-83
2022/06/10 06:11:42;;;;;;;9.90;5.07;;;23.60;99.90;;;;;;5077717;28;20113;-78
2022/06/10 06:14:09;;;;;;;9.43;4.93;;;23.70;99.90;;;;;;5081010;28;20090;-84
2022/06/10 06:16:37;;;;;;;11.93;6.22;;;23.90;99.90;;;;;;5076184;28;20050;-85
2022/06/10 06:19:04;;;;;;;10.82;5.75;;;24.10;99.90;;;;;;5079478;28;20074;-81
2022/06/10 06:21:33;;;;;;;11.75;6.15;;;24.40;99.90;;;;;;5076303;28;20110;-86
2022/06/10 06:24:00;;;;;;;6.10;5.22;;;24.60;99.90;;;;;;5061595;28;20144;-84
2022/06/10 06:26:30;;;;;;;9.68;6.25;;;24.60;99.90;;;;;;5080516;28;20408;-86
2022/06/10 06:28:57;;;;;;;9.48;5.40;;;24.70;99.90;;;;;;5083474;28;20047;-87
2022/06/10 06:31:25;;;;;;;9.60;5.05;;;24.50;99.90;;;;;;5080824;28;20114;-84
2022/06/10 06:33:52;;;;;;;10.05;4.90;;;24.40;99.90;;;;;;5082016;28;20589;-84
2022/06/10 06:36:23;;;;;;;7.15;4.80;;;24.70;99.90;;;;;;5081810;28;20043;-84
2022/06/10 06:38:50;;;;;;;9.63;4.97;;;25.10;99.90;;;;;;5081095;28;20151;-85
2022/06/10 06:41:19;;;;;;;10.07;5.82;;;25.50;99.90;;;;;;5082606;28;20036;-86
2022/06/10 06:43:47;;;;;;;5.22;4.63;;;26.00;97.80;;;;;;5092417;28;20071;-83
2022/06/10 06:46:17;;;;;;;6.07;5.43;;;26.40;94.50;;;;;;5092172;28;20131;-82
2022/06/10 06:48:45;;;;;;;5.97;5.07;;;26.50;93.20;;;;;;5081119;28;20520;-83
2022/06/10 06:51:13;;;;;;;11.13;4.78;;;26.60;92.40;;;;;;5074063;28;20123;-84
2022/06/10 06:53:40;;;;;;;5.45;4.82;;;26.60;91.70;;;;;;5072283;28;20076;-82
2022/06/10 06:56:08;;;;;;;7.93;4.10;;;26.80;90.70;;;;;;5074868;28;20431;-83
2022/06/10 06:58:35;;;;;;;4.95;3.92;;;27.00;90.60;;;;;;5078608;28;20036;-83
2022/06/10 07:01:04;;;;;;;3.70;3.38;;;27.40;87.60;;;;;;5091696;28;20052;-83
2022/06/10 07:03:31;;;;;;;4.28;3.88;;;27.80;84.80;;;;;;5093525;28;20074;-84
2022/06/10 07:05:59;;;;;;;4.35;2.75;;;28.20;85.70;;;;;;5092093;28;20059;-83
2022/06/10 07:08:31;;;;;;;8.55;3.22;;;28.40;78.90;;;;;;5088996;28;20052;-84
2022/06/10 07:10:59;;;;;;;4.10;3.60;;;28.20;76.50;;;;;;5072768;28;20057;-84
2022/06/10 07:13:27;;;;;;;8.10;2.70;;;28.00;76.50;;;;;;5071334;28;20139;-83
2022/06/10 07:15:55;;;;;;;2.25;1.92;;;28.00;76.50;;;;;;5070310;28;20357;-84
2022/06/10 07:18:23;;;;;;;6.95;3.25;;;28.20;77.00;;;;;;5077484;28;20472;-83
2022/06/10 07:20:51;;;;;;;2.92;2.70;;;28.60;74.00;;;;;;5072589;28;20102;-82
2022/06/10 07:23:19;;;;;;;3.88;2.70;;;28.90;75.20;;;;;;5070879;28;20078;-84
2022/06/10 07:25:47;;;;;;;7.50;2.55;;;29.30;73.00;;;;;;5088244;28;20075;-83
2022/06/10 07:28:15;;;;;;;8.57;2.42;;;29.70;70.50;;;;;;5082514;28;20055;-84
2022/06/10 07:30:43;;;;;;;4.38;2.50;;;29.90;66.30;;;;;;5071441;28;20060;-84
2022/06/10 07:33:12;;;;;;;8.85;2.47;;;30.20;65.40;;;;;;5073900;28;20609;-85
2022/06/10 07:35:40;;;;;;;2.00;1.88;;;30.20;66.80;;;;;;5078030;28;20051;-83
2022/06/10 07:38:08;;;;;;;5.07;1.75;;;30.00;63.90;;;;;;5091614;28;20534;-84
2022/06/10 07:43:23;;;;;;;3.45;1.65;;;30.30;63.40;;;;;;5072348;28;20052;-86
2022/06/10 07:45:51;;;;;;;5.18;1.58;;;30.60;64.30;;;;;;5087847;28;20048;-84
2022/06/10 07:48:19;;;;;;;4.95;2.00;;;30.50;63.50;;;;;;5092431;28;20131;-84
2022/06/10 07:50:48;;;;;;;2.47;1.60;;;30.60;62.50;;;;;;5073194;28;20048;-84
2022/06/10 07:53:17;;;;;;;1.98;1.77;;;30.80;63.00;;;;;;5088369;28;20044;-75
2022/06/10 07:55:45;;;;;;;4.93;1.55;;;30.80;59.50;;;;;;5081326;28;20594;-77
2022/06/10 07:58:14;;;;;;;8.55;1.35;;;31.00;61.70;;;;;;5081649;28;20496;-79
2022/06/10 08:00:42;;;;;;;2.08;1.30;;;31.30;59.00;;;;;;5086687;28;20549;-76
2022/06/10 08:03:10;;;;;;;3.65;1.70;;;31.50;56.90;;;;;;5082349;28;20539;-80
2022/06/10 08:05:38;;;;;;;2.17;1.63;;;31.10;57.50;;;;;;5076639;28;20071;-78
2022/06/10 08:08:08;;;;;;;2.22;1.27;;;30.90;57.80;;;;;;5083362;28;20063;-81
2022/06/10 08:10:37;;;;;;;1.10;0.90;;;31.40;57.30;;;;;;5086425;28;20044;-82
2022/06/10 08:13:06;;;;;;;1.17;1.08;;;31.60;56.50;;;;;;5090712;28;20056;-80
2022/06/10 08:15:34;;;;;;;2.30;1.10;;;31.70;55.40;;;;;;5075433;28;20052;-78
2022/06/10 08:18:02;;;;;;;4.38;1.40;;;32.00;55.60;;;;;;5090822;28;20135;-77
2022/06/10 08:23:16;;;;;;;4.68;1.42;;;32.70;54.60;;;;;;5077446;28;20139;-76
2022/06/10 08:25:44;;;;;;;2.67;1.02;;;32.80;53.70;;;;;;5073580;28;20143;-76
2022/06/10 08:28:12;;;;;;;1.33;1.20;;;32.90;53.40;;;;;;5070789;28;20516;-77
2022/06/10 08:30:39;;;;;;;2.80;1.20;;;32.90;52.10;;;;;;5071343;28;20044;-76
2022/06/10 08:33:06;;;;;;;1.45;1.20;;;33.10;51.60;;;;;;5090711;28;20055;-76
2022/06/10 08:35:36;;;;;;;1.90;1.00;;;33.30;51.60;;;;;;5073541;28;20053;-80
2022/06/10 08:38:05;;;;;;;2.58;0.77;;;33.40;50.60;;;;;;5074722;28;20048;-78
2022/06/10 08:40:44;;;;;;;1.60;1.38;;;33.50;50.20;;;;;;5073325;28;20055;-78
2022/06/10 08:43:22;;;;;;;4.35;1.40;;;33.60;50.10;;;;;;5054077;28;20048;-76
2022/06/10 08:45:56;;;;;;;3.97;1.15;;;33.60;50.50;;;;;;5070415;28;20049;-76
2022/06/10 08:48:30;;;;;;;6.07;2.65;;;33.60;50.80;;;;;;5072096;28;20148;-77
2022/06/10 08:51:18;;;;;;;1.73;1.63;;;33.80;51.40;;;;;;5083162;28;20051;-76
2022/06/10 08:54:03;;;;;;;8.73;1.10;;;34.10;50.20;;;;;;5063166;28;20101;-76
2022/06/10 08:56:35;;;;;;;2.30;1.23;;;34.20;50.10;;;;;;5078317;28;20063;-77
2022/06/10 08:59:14;;;;;;;2.33;1.00;;;34.30;50.30;;;;;;5084231;28;20060;-77
2022/06/10 09:01:50;;;;;;;1.20;1.10;;;34.00;49.10;;;;;;5085741;28;20503;-76
2022/06/10 09:04:29;;;;;;;1.13;0.95;;;33.90;49.20;;;;;;5069866;28;20054;-76
2022/06/10 09:07:01;;;;;;;2.28;1.10;;;33.90;47.90;;;;;;5076200;28;20222;-76
2022/06/10 09:09:32;;;;;;;;;;;33.80;48.00;;;;;;5082227;28;20040;-76
2022/06/10 09:12:11;;;;;;;2.00;1.02;;;33.60;48.80;;;;;;5079568;28;20099;-75
2022/06/10 09:14:39;;;;;;;3.47;1.33;;;33.50;50.40;;;;;;5075405;28;20044;-78
2022/06/10 09:17:12;;;;;;;1.65;1.50;;;33.40;49.60;;;;;;5076601;28;20114;-76
2022/06/10 09:19:48;;;;;;;7.20;4.50;;;33.40;50.20;;;;;;5078585;28;20385;-77
2022/06/10 09:22:27;;;;;;;2.10;1.80;;;33.30;50.70;;;;;;5084809;28;20139;-75
2022/06/10 09:25:02;;;;;;;3.28;2.08;;;33.20;51.10;;;;;;5075307;28;20048;-74
2022/06/10 09:27:34;;;;;;;1.02;1.02;;;33.30;50.40;;;;;;5081809;28;20044;-76
2022/06/10 09:30:04;;;;;;;1.23;1.13;;;33.10;49.70;;;;;;5079394;28;20056;-77
2022/06/10 09:32:46;;;;;;;2.50;1.20;;;33.20;50.80;;;;;;5080348;28;20071;-78
2022/06/10 09:35:23;;;;;;;2.78;1.30;;;33.10;50.20;;;;;;5073695;28;20044;-78
2022/06/10 09:37:56;;;;;;;1.63;1.13;;;33.20;49.40;;;;;;5085341;28;20168;-78
2022/06/10 09:40:38;;;;;;;3.00;1.15;;;33.00;49.10;;;;;;5077685;28;20358;-79
2022/06/10 09:43:30;;;;;;;1.77;1.05;;;32.80;50.10;;;;;;5086187;28;20139;-81
2022/06/10 09:46:13;;;;;;;5.15;2.28;;;32.70;50.10;;;;;;5087768;28;20050;-79
2022/06/10 09:48:55;;;;;;;3.28;2.90;;;32.50;50.70;;;;;;5073124;28;20063;-78
2022/06/10 09:51:35;;;;;;;2.03;1.88;;;32.70;50.60;;;;;;5084700;28;20393;-78
2022/06/10 09:54:23;;;;;;;3.30;1.45;;;33.20;49.30;;;;;;5079152;28;20446;-77
2022/06/10 09:57:04;;;;;;;3.30;1.10;;;33.50;48.90;;;;;;5077139;28;20044;-78
2022/06/10 09:59:38;;;;;;;3.22;1.70;;;33.80;48.10;;;;;;5076094;28;20076;-76
2022/06/10 10:02:22;;;;;;;3.38;0.93;;;34.20;48.40;;;;;;5073116;28;20516;-78
2022/06/10 10:05:03;;;;;;;10.88;1.35;;;34.50;46.80;;;;;;5071945;28;20424;-77
2022/06/10 10:07:40;;;;;;;3.22;0.80;;;34.70;45.70;;;;;;5081187;28;20117;-76
2022/06/10 10:10:18;;;;;;;1.60;0.90;;;34.40;45.60;;;;;;5067907;28;20187;-79
2022/06/10 10:12:52;;;;;;;4.45;0.70;;;34.30;45.30;;;;;;5077866;28;20483;-80
2022/06/10 10:15:28;;;;;;;0.80;0.80;;;34.50;45.20;;;;;;5077910;28;20040;-78
2022/06/10 10:18:26;;;;;;;2.45;0.90;;;34.70;45.80;;;;;;5087623;28;20098;-76
2022/06/10 10:21:09;;;;;;;1.13;1.10;;;34.80;45.10;;;;;;5068110;28;20155;-77
2022/06/10 10:23:40;;;;;;;2.65;1.50;;;34.90;46.30;;;;;;5069165;28;20071;-78
2022/06/10 10:26:16;;;;;;;3.05;1.40;;;35.30;45.80;;;;;;5078556;28;20058;-78
2022/06/10 10:28:45;;;;;;;3.95;1.13;;;35.40;45.00;;;;;;5066776;28;20146;-75
2022/06/10 10:31:19;;;;;;;1.10;1.00;;;35.50;45.50;;;;;;5075054;28;20075;-75
2022/06/10 10:33:47;;;;;;;2.25;0.93;;;35.60;44.40;;;;;;5081634;28;20575;-78
2022/06/10 10:36:24;;;;;;;2.25;0.90;;;35.70;44.30;;;;;;5065745;28;20056;-76
2022/06/10 10:38:53;;;;;;;1.50;1.00;;;36.00;44.30;;;;;;5072120;28;20612;-76
2022/06/10 10:41:34;;;;;;;1.55;1.02;;;36.40;45.10;;;;;;5084326;28;20101;-75
2022/06/10 10:44:05;;;;;;;2.80;1.00;;;36.90;43.70;;;;;;5075540;28;20531;-76
2022/06/10 10:46:38;;;;;;;12.68;1.50;;;37.30;43.30;;;;;;5074075;28;20058;-76
2022/06/10 10:49:22;;;;;;;2.47;1.25;;;37.30;42.70;;;;;;5073440;28;20068;-77
2022/06/10 10:51:51;;;;;;;2.90;1.10;;;36.90;43.30;;;;;;5059548;28;20051;-76
2022/06/10 10:54:23;;;;;;;2.45;1.30;;;36.70;43.70;;;;;;5074071;28;20048;-77
2022/06/10 10:56:51;;;;;;;1.33;1.23;;;36.20;43.30;;;;;;5076322;28;20045;-77
2022/06/10 10:59:34;;;;;;;1.05;0.85;;;36.20;43.00;;;;;;5076130;28;20166;-78
2022/06/10 11:02:27;;;;;;;2.05;0.98;;;35.70;43.00;;;;;;5047927;28;20049;-81
2022/06/10 11:05:19;;;;;;;4.55;1.10;;;35.10;44.80;;;;;;5072570;28;20569;-76
2022/06/10 11:07:47;;;;;;;2.25;0.93;;;34.40;44.60;;;;;;5076879;28;20044;-78
2022/06/10 11:10:21;;;;;;;1.10;1.00;;;34.10;44.60;;;;;;5072724;28;20040;-78
2022/06/10 11:12:50;;;;;;;2.65;0.85;;;34.10;44.40;;;;;;5086621;28;20113;-78
2022/06/10 11:15:22;;;;;;;2.05;1.05;;;34.60;43.70;;;;;;5075874;28;20047;-76
2022/06/10 11:17:51;;;;;;;3.00;0.80;;;35.40;43.90;;;;;;5072989;28;20064;-76
2022/06/10 11:20:25;;;;;;;0.90;0.90;;;35.80;42.90;;;;;;5073774;28;20060;-76
2022/06/10 11:23:11;;;;;;;0.70;0.70;;;36.00;42.20;;;;;;5080435;28;20048;-77
2022/06/10 11:25:39;;;;;;;0.90;0.90;;;36.40;42.70;;;;;;5075270;28;20172;-77
2022/06/10 11:28:19;;;;;;;0.90;0.90;;;36.90;41.40;;;;;;5079811;28;20139;-75
2022/06/10 11:30:49;;;;;;;0.60;0.60;;;37.30;41.80;;;;;;5078358;28;20052;-86
2022/06/10 11:33:30;;;;;;;1.27;1.10;;;37.50;40.30;;;;;;5070852;28;20110;-81
2022/06/10 11:36:06;;;;;;;1.98;0.88;;;37.80;40.20;;;;;;5078711;28;20139;-78
2022/06/10 11:38:37;;;;;;;3.08;1.05;;;37.80;40.00;;;;;;5086333;28;20055;-82
2022/06/10 11:41:22;;;;;;;1.80;0.80;;;37.90;39.20;;;;;;5073193;28;20151;-81
2022/06/10 11:43:54;;;;;;;1.40;0.95;;;38.30;38.90;;;;;;5084356;28;20058;-78
2022/06/10 11:46:29;;;;;;;3.17;0.88;;;38.60;38.90;;;;;;5079187;28;20527;-83
2022/06/10 11:49:03;;;;;;;1.10;0.68;;;38.50;39.00;;;;;;5067327;28;20048;-80
2022/06/10 11:51:38;;;;;;;1.20;0.63;;;38.60;38.00;;;;;;5069995;28;20052;-79
2022/06/10 11:54:23;;;;;;;0.60;0.60;;;38.70;39.00;;;;;;5070557;28;20140;-76
2022/06/10 11:59:53;;;;;;;1.42;0.60;;;38.80;38.40;;;;;;5088422;28;20043;-82
2022/06/10 12:02:30;;;;;;;3.60;1.00;;;38.70;37.50;;;;;;5079541;28;20048;-76
2022/06/10 12:05:12;;;;;;;2.35;0.70;;;38.70;37.60;;;;;;5081201;28;20056;-76
2022/06/10 12:07:45;;;;;;;0.60;0.60;;;38.60;38.60;;;;;;5068351;28;20079;-76
2022/06/10 12:10:18;;;;;;;1.85;0.60;;;38.60;37.50;;;;;;5078042;28;20048;-77
2022/06/10 12:12:48;;;;;;;0.98;0.70;;;38.60;36.90;;;;;;5085445;28;20078;-77
2022/06/10 12:15:25;;;;;;;0.93;0.90;;;38.30;37.60;;;;;;5074247;28;20186;-76
2022/06/10 12:17:57;;;;;;;1.23;0.80;;;38.20;37.50;;;;;;5052612;28;20059;-76
2022/06/10 12:20:34;;;;;;;0.88;0.75;;;38.00;39.10;;;;;;5082547;28;20101;-76
2022/06/10 12:23:11;;;;;;;3.08;1.00;;;38.00;39.20;;;;;;5084682;28;20096;-81
2022/06/10 12:25:55;;;;;;;1.38;1.25;;;38.00;40.00;;;;;;5075195;28;20055;-80
2022/06/10 12:28:32;;;;;;;1.73;0.95;;;37.90;39.50;;;;;;5087400;28;20053;-80
2022/06/10 12:31:05;;;;;;;2.17;0.90;;;37.70;39.20;;;;;;5074534;28;20040;-82
2022/06/10 12:33:42;;;;;;;2.13;0.80;;;37.60;39.10;;;;;;5086448;28;20044;-76
2022/06/10 12:36:16;;;;;;;6.97;1.52;;;37.20;41.00;;;;;;5076071;28;20047;-76
2022/06/10 12:38:45;;;;;;;3.72;1.10;;;36.80;40.60;;;;;;5077437;28;20055;-77
2022/06/10 12:41:18;;;;;;;0.90;0.90;;;36.10;41.30;;;;;;5081839;28;20511;-76
2022/06/10 12:43:50;;;;;;;4.25;0.95;;;35.40;41.90;;;;;;5080337;28;20048;-79
2022/06/10 12:46:39;;;;;;;1.77;1.00;;;34.60;42.90;;;;;;5065439;28;20064;-76
2022/06/10 12:49:09;;;;;;;4.80;1.48;;;34.10;43.90;;;;;;5071642;28;20063;-76
2022/06/10 12:51:43;;;;;;;4.95;1.23;;;33.80;44.10;;;;;;5086298;28;20052;-76
2022/06/10 12:54:22;;;;;;;1.42;1.23;;;33.80;44.50;;;;;;5054805;28;20675;-75
2022/06/10 12:56:50;;;;;;;6.13;3.85;;;33.80;44.40;;;;;;5082591;28;20058;-75
2022/06/10 12:59:23;;;;;;;1.58;1.30;;;33.60;44.40;;;;;;5072451;28;20451;-75
2022/06/10 13:01:52;;;;;;;2.17;1.25;;;33.40;45.10;;;;;;5067209;28;20044;-77
2022/06/10 13:04:53;;;;;;;1.55;1.20;;;33.10;46.00;;;;;;5079182;28;20048;-76
2022/06/10 13:07:36;;;;;;;1.23;1.00;;;32.90;46.40;;;;;;5069494;28;20051;-74
2022/06/10 13:10:44;;;;;;;1.10;1.10;;;33.00;46.50;;;;;;5072738;28;20071;-75
2022/06/10 13:13:15;;;;;;;2.90;1.50;;;33.10;46.60;;;;;;5088314;28;20051;-72
2022/06/10 13:15:44;;;;;;;1.53;1.30;;;33.20;46.50;;;;;;5072415;28;20500;-73
2022/06/10 13:18:29;;;;;;;7.10;1.48;;;33.20;47.20;;;;;;5069242;28;20048;-74
2022/06/10 13:20:57;;;;;;;3.00;1.35;;;33.10;46.90;;;;;;5078230;28;20525;-74
2022/06/10 13:23:27;;;;;;;1.98;1.23;;;33.10;47.20;;;;;;5080610;28;20345;-77
2022/06/10 13:26:13;;;;;;;5.68;1.05;;;33.10;46.50;;;;;;5070078;28;20386;-78
2022/06/10 13:28:42;;;;;;;6.90;1.42;;;33.20;46.30;;;;;;5072116;28;20401;-77
2022/06/10 13:31:15;;;;;;;2.17;1.67;;;33.10;46.20;;;;;;5075173;28;20048;-75